sensor_id;sensor_type;location;lat;lon;timestamp;temperature;humidity
39849;DHT22;25518;47.878;15.914;2023-05-10T06:46:55;12.10;99.90
39849;DHT22;25518;47.878;15.914;2023-05-10T06:49:45;12.20;99.90
39849;DHT22;25518;47.878;15.914;2023-05-10T06:52:35;13.00;99.90
39849;DHT22;25518;47.878;15.914;2023-05-10T06:55:24;13.00;99.90
39849;DHT22;25518;47.878;15.914;2023-05-10T06:58:14;13.40;99.90
39849;DHT22;25518;47.878;15.914;2023-05-10T07:01:05;13.70;99.90
39849;DHT22;25518;47.878;15.914;2023-05-10T07:03:54;14.00;99.90
39849;DHT22;25518;47.878;15.914;2023-05-10T07:06:44;14.10;99.90
39849;DHT22;25518;47.878;15.914;2023-05-10T07:09:35;14.30;99.90
39849;DHT22;25518;47.878;15.914;2023-05-10T07:12:25;14.40;99.90
39849;DHT22;25518;47.878;15.914;2023-05-10T07:15:15;14.50;99.90
39849;DHT22;25518;47.878;15.914;2023-05-10T07:18:04;14.70;99.90
39849;DHT22;25518;47.878;15.914;2023-05-10T07:20:57;14.80;99.90
39849;DHT22;25518;47.878;15.914;2023-05-10T07:23:46;14.80;99.90
39849;DHT22;25518;47.878;15.914;2023-05-10T07:26:36;14.80;99.90
39849;DHT22;25518;47.878;15.914;2023-05-10T07:29:26;14.70;99.90
39849;DHT22;25518;47.878;15.914;2023-05-10T07:32:15;14.70;99.90
39849;DHT22;25518;47.878;15.914;2023-05-10T07:35:05;15.00;99.90
39849;DHT22;25518;47.878;15.914;2023-05-10T07:37:55;15.20;99.90
39849;DHT22;25518;47.878;15.914;2023-05-10T07:40:45;15.40;99.90
39849;DHT22;25518;47.878;15.914;2023-05-10T07:43:35;14.20;99.90
39849;DHT22;25518;47.878;15.914;2023-05-10T07:46:24;15.40;99.90
39849;DHT22;25518;47.878;15.914;2023-05-10T07:49:14;15.40;99.90
39849;DHT22;25518;47.878;15.914;2023-05-10T07:52:04;15.00;99.90
39849;DHT22;25518;47.878;15.914;2023-05-10T07:54:53;15.00;99.90
39849;DHT22;25518;47.878;15.914;2023-05-10T07:57:43;15.00;99.90
39849;DHT22;25518;47.878;15.914;2023-05-10T08:00:34;14.90;99.90
39849;DHT22;25518;47.878;15.914;2023-05-10T08:03:23;14.90;99.90
39849;DHT22;25518;47.878;15.914;2023-05-10T08:06:14;15.00;99.90
39849;DHT22;25518;47.878;15.914;2023-05-10T08:09:05;14.80;99.90
39849;DHT22;25518;47.878;15.914;2023-05-10T08:11:54;14.70;99.90
39849;DHT22;25518;47.878;15.914;2023-05-10T08:14:44;14.90;99.90
39849;DHT22;25518;47.878;15.914;2023-05-10T08:17:34;15.00;99.90
39849;DHT22;25518;47.878;15.914;2023-05-10T08:20:23;15.10;99.90
39849;DHT22;25518;47.878;15.914;2023-05-10T08:23:13;15.20;99.90
39849;DHT22;25518;47.878;15.914;2023-05-10T08:26:03;15.10;99.90
39849;DHT22;25518;47.878;15.914;2023-05-10T08:28:53;14.80;99.90
39849;DHT22;25518;47.878;15.914;2023-05-10T08:31:42;15.00;99.90
39849;DHT22;25518;47.878;15.914;2023-05-10T08:34:32;15.20;99.90
39849;DHT22;25518;47.878;15.914;2023-05-10T08:37:23;15.60;99.90
39849;DHT22;25518;47.878;15.914;2023-05-10T08:40:14;15.90;99.90
39849;DHT22;25518;47.878;15.914;2023-05-10T08:43:06;16.00;99.90
39849;DHT22;25518;47.878;15.914;2023-05-10T08:45:57;16.30;99.90
39849;DHT22;25518;47.878;15.914;2023-05-10T08:48:50;16.10;99.90
39849;DHT22;25518;47.878;15.914;2023-05-10T08:51:44;16.00;99.90
39849;DHT22;25518;47.878;15.914;2023-05-10T08:54:36;16.00;99.90
39849;DHT22;25518;47.878;15.914;2023-05-10T08:57:26;15.70;99.90
39849;DHT22;25518;47.878;15.914;2023-05-10T09:00:16;15.50;99.90
39849;DHT22;25518;47.878;15.914;2023-05-10T09:03:07;15.50;99.90
39849;DHT22;25518;47.878;15.914;2023-05-10T09:05:56;15.60;99.90
39849;DHT22;25518;47.878;15.914;2023-05-10T09:08:46;15.70;99.90
39849;DHT22;25518;47.878;15.914;2023-05-10T09:11:36;15.80;99.90
39849;DHT22;25518;47.878;15.914;2023-05-10T09:14:27;16.20;99.90
39849;DHT22;25518;47.878;15.914;2023-05-10T09:17:16;16.50;99.90
39849;DHT22;25518;47.878;15.914;2023-05-10T09:20:06;16.70;99.90
39849;DHT22;25518;47.878;15.914;2023-05-10T09:22:56;16.60;99.90
39849;DHT22;25518;47.878;15.914;2023-05-10T09:25:46;16.50;99.90
39849;DHT22;25518;47.878;15.914;2023-05-10T09:28:54;15.10;99.90
39849;DHT22;25518;47.878;15.914;2023-05-10T09:31:48;17.00;99.90
39849;DHT22;25518;47.878;15.914;2023-05-10T09:34:40;16.80;99.90
39849;DHT22;25518;47.878;15.914;2023-05-10T09:37:30;16.50;99.90
39849;DHT22;25518;47.878;15.914;2023-05-10T09:40:22;16.40;99.90
39849;DHT22;25518;47.878;15.914;2023-05-10T09:43:13;16.50;99.90
39849;DHT22;25518;47.878;15.914;2023-05-10T09:46:09;16.40;99.90
39849;DHT22;25518;47.878;15.914;2023-05-10T09:49:00;16.20;99.90
39849;DHT22;25518;47.878;15.914;2023-05-10T09:52:07;16.40;99.90
39849;DHT22;25518;47.878;15.914;2023-05-10T09:54:57;16.20;99.90
39849;DHT22;25518;47.878;15.914;2023-05-10T09:57:47;16.20;99.90
39849;DHT22;25518;47.878;15.914;2023-05-10T10:00:40;16.30;99.90
39849;DHT22;25518;47.878;15.914;2023-05-10T10:03:30;16.40;99.90
39849;DHT22;25518;47.878;15.914;2023-05-10T10:06:20;16.40;99.90
39849;DHT22;25518;47.878;15.914;2023-05-10T10:09:09;16.50;99.90
39849;DHT22;25518;47.878;15.914;2023-05-10T10:12:01;16.70;99.90
39849;DHT22;25518;47.878;15.914;2023-05-10T10:14:51;16.80;99.90
39849;DHT22;25518;47.878;15.914;2023-05-10T10:17:41;16.90;99.90
39849;DHT22;25518;47.878;15.914;2023-05-10T10:20:32;17.20;99.20
39849;DHT22;25518;47.878;15.914;2023-05-10T10:23:21;17.20;99.10
39849;DHT22;25518;47.878;15.914;2023-05-10T10:26:11;17.40;99.90
39849;DHT22;25518;47.878;15.914;2023-05-10T10:29:23;17.50;99.90
39849;DHT22;25518;47.878;15.914;2023-05-10T10:32:38;17.50;97.80
39849;DHT22;25518;47.878;15.914;2023-05-10T10:35:33;17.70;97.60
39849;DHT22;25518;47.878;15.914;2023-05-10T10:38:25;18.30;98.40
39849;DHT22;25518;47.878;15.914;2023-05-10T10:41:35;18.60;98.70
39849;DHT22;25518;47.878;15.914;2023-05-10T10:47:22;19.10;99.90
39849;DHT22;25518;47.878;15.914;2023-05-10T10:50:14;19.20;97.60
39849;DHT22;25518;47.878;15.914;2023-05-10T10:53:10;18.70;98.80
39849;DHT22;25518;47.878;15.914;2023-05-10T10:56:06;18.20;96.50
39849;DHT22;25518;47.878;15.914;2023-05-10T10:58:59;18.20;97.60
39849;DHT22;25518;47.878;15.914;2023-05-10T11:01:52;18.80;98.30
39849;DHT22;25518;47.878;15.914;2023-05-10T11:04:43;18.90;97.80
39849;DHT22;25518;47.878;15.914;2023-05-10T11:07:35;19.00;97.40
39849;DHT22;25518;47.878;15.914;2023-05-10T11:10:26;19.60;98.40
39849;DHT22;25518;47.878;15.914;2023-05-10T11:13:15;19.70;96.30
39849;DHT22;25518;47.878;15.914;2023-05-10T11:16:14;19.80;96.20
39849;DHT22;25518;47.878;15.914;2023-05-10T11:19:07;19.80;95.80
39849;DHT22;25518;47.878;15.914;2023-05-10T11:24:57;19.70;98.00
39849;DHT22;25518;47.878;15.914;2023-05-10T11:27:48;19.80;97.10
39849;DHT22;25518;47.878;15.914;2023-05-10T11:30:39;19.70;95.80
39849;DHT22;25518;47.878;15.914;2023-05-10T11:33:30;19.80;97.20
39849;DHT22;25518;47.878;15.914;2023-05-10T11:36:24;20.10;95.90
39849;DHT22;25518;47.878;15.914;2023-05-10T11:39:15;20.10;95.20
39849;DHT22;25518;47.878;15.914;2023-05-10T11:42:05;20.00;95.00
39849;DHT22;25518;47.878;15.914;2023-05-10T11:44:54;18.30;96.00
39849;DHT22;25518;47.878;15.914;2023-05-10T11:47:44;19.70;96.60
39849;DHT22;25518;47.878;15.914;2023-05-10T11:50:33;19.70;97.30
39849;DHT22;25518;47.878;15.914;2023-05-10T11:53:26;19.70;95.30
39849;DHT22;25518;47.878;15.914;2023-05-10T11:56:16;19.10;95.70
39849;DHT22;25518;47.878;15.914;2023-05-10T11:59:06;18.70;96.00
39849;DHT22;25518;47.878;15.914;2023-05-10T12:01:57;18.50;96.20
39849;DHT22;25518;47.878;15.914;2023-05-10T12:04:47;18.80;95.50
39849;DHT22;25518;47.878;15.914;2023-05-10T12:07:37;18.90;95.90
39849;DHT22;25518;47.878;15.914;2023-05-10T12:10:27;19.30;97.10
39849;DHT22;25518;47.878;15.914;2023-05-10T12:13:18;19.20;94.30
39849;DHT22;25518;47.878;15.914;2023-05-10T12:16:25;18.70;94.50
39849;DHT22;25518;47.878;15.914;2023-05-10T12:19:18;18.30;95.20
39849;DHT22;25518;47.878;15.914;2023-05-10T12:22:10;18.60;96.10
39849;DHT22;25518;47.878;15.914;2023-05-10T12:24:59;18.80;95.60
39849;DHT22;25518;47.878;15.914;2023-05-10T12:27:58;19.20;95.10
39849;DHT22;25518;47.878;15.914;2023-05-10T12:30:53;18.90;94.80
39849;DHT22;25518;47.878;15.914;2023-05-10T12:33:44;18.90;95.20
39849;DHT22;25518;47.878;15.914;2023-05-10T12:36:38;18.70;95.20
39849;DHT22;25518;47.878;15.914;2023-05-10T12:39:44;18.40;95.30
39849;DHT22;25518;47.878;15.914;2023-05-10T12:42:36;18.30;95.50
39849;DHT22;25518;47.878;15.914;2023-05-10T12:45:26;18.40;96.30
39849;DHT22;25518;47.878;15.914;2023-05-10T12:48:16;18.70;95.20
39849;DHT22;25518;47.878;15.914;2023-05-10T12:51:06;18.10;94.50
39849;DHT22;25518;47.878;15.914;2023-05-10T12:54:02;19.30;94.90
39849;DHT22;25518;47.878;15.914;2023-05-10T12:56:52;19.50;94.10
39849;DHT22;25518;47.878;15.914;2023-05-10T12:59:42;19.10;92.80
39849;DHT22;25518;47.878;15.914;2023-05-10T13:02:31;19.50;94.20
39849;DHT22;25518;47.878;15.914;2023-05-10T13:05:21;19.10;92.80
39849;DHT22;25518;47.878;15.914;2023-05-10T13:08:11;19.10;93.00
39849;DHT22;25518;47.878;15.914;2023-05-10T13:11:01;19.00;93.50
39849;DHT22;25518;47.878;15.914;2023-05-10T13:13:52;19.00;93.60
39849;DHT22;25518;47.878;15.914;2023-05-10T13:16:41;18.90;94.30
39849;DHT22;25518;47.878;15.914;2023-05-10T13:19:31;19.10;93.90
39849;DHT22;25518;47.878;15.914;2023-05-10T13:22:20;18.90;92.50
39849;DHT22;25518;47.878;15.914;2023-05-10T13:25:11;18.70;92.50
39849;DHT22;25518;47.878;15.914;2023-05-10T13:28:01;18.70;93.50
39849;DHT22;25518;47.878;15.914;2023-05-10T13:30:51;18.80;93.40
39849;DHT22;25518;47.878;15.914;2023-05-10T13:33:41;18.70;93.20
39849;DHT22;25518;47.878;15.914;2023-05-10T13:36:30;18.40;94.20
39849;DHT22;25518;47.878;15.914;2023-05-10T13:39:20;17.50;92.40
39849;DHT22;25518;47.878;15.914;2023-05-10T13:42:10;18.20;93.60
39849;DHT22;25518;47.878;15.914;2023-05-10T13:45:00;18.00;92.40
39849;DHT22;25518;47.878;15.914;2023-05-10T13:47:51;16.20;92.40
39849;DHT22;25518;47.878;15.914;2023-05-10T13:50:41;17.90;93.10
39849;DHT22;25518;47.878;15.914;2023-05-10T13:53:31;17.90;92.90
39849;DHT22;25518;47.878;15.914;2023-05-10T13:56:21;18.10;95.00
39849;DHT22;25518;47.878;15.914;2023-05-10T13:59:10;18.00;94.60
39849;DHT22;25518;47.878;15.914;2023-05-10T14:02:00;18.00;93.40
39849;DHT22;25518;47.878;15.914;2023-05-10T14:04:51;18.20;93.60
39849;DHT22;25518;47.878;15.914;2023-05-10T14:07:41;18.10;92.50
39849;DHT22;25518;47.878;15.914;2023-05-10T14:10:30;17.90;92.80
39849;DHT22;25518;47.878;15.914;2023-05-10T14:13:20;18.10;93.70
39849;DHT22;25518;47.878;15.914;2023-05-10T14:16:09;18.20;94.60
39849;DHT22;25518;47.878;15.914;2023-05-10T14:19:00;18.20;95.00
39849;DHT22;25518;47.878;15.914;2023-05-10T14:21:49;18.10;96.50
39849;DHT22;25518;47.878;15.914;2023-05-10T14:24:39;18.10;93.60
39849;DHT22;25518;47.878;15.914;2023-05-10T14:27:29;18.10;94.00
39849;DHT22;25518;47.878;15.914;2023-05-10T14:30:19;18.10;93.80
39849;DHT22;25518;47.878;15.914;2023-05-10T14:33:09;18.20;94.60
39849;DHT22;25518;47.878;15.914;2023-05-10T14:35:59;18.20;94.50
39849;DHT22;25518;47.878;15.914;2023-05-10T14:38:49;18.20;93.70
39849;DHT22;25518;47.878;15.914;2023-05-10T14:41:39;17.90;93.20
39849;DHT22;25518;47.878;15.914;2023-05-10T14:44:32;17.70;93.60
39849;DHT22;25518;47.878;15.914;2023-05-10T14:47:21;17.60;93.40
39849;DHT22;25518;47.878;15.914;2023-05-10T14:50:11;17.50;94.20
39849;DHT22;25518;47.878;15.914;2023-05-10T14:53:00;17.40;95.60
39849;DHT22;25518;47.878;15.914;2023-05-10T14:55:50;17.10;96.40
39849;DHT22;25518;47.878;15.914;2023-05-10T14:58:40;17.10;97.60
39849;DHT22;25518;47.878;15.914;2023-05-10T15:01:29;17.10;96.60
39849;DHT22;25518;47.878;15.914;2023-05-10T15:04:18;16.80;95.70
39849;DHT22;25518;47.878;15.914;2023-05-10T15:07:08;16.70;96.60
39849;DHT22;25518;47.878;15.914;2023-05-10T15:09:57;16.50;97.00
39849;DHT22;25518;47.878;15.914;2023-05-10T15:12:47;16.60;97.70
39849;DHT22;25518;47.878;15.914;2023-05-10T15:15:37;16.70;97.10
39849;DHT22;25518;47.878;15.914;2023-05-10T15:18:27;16.70;97.20
39849;DHT22;25518;47.878;15.914;2023-05-10T15:21:17;16.60;98.20
39849;DHT22;25518;47.878;15.914;2023-05-10T15:24:06;16.30;97.90
39849;DHT22;25518;47.878;15.914;2023-05-10T15:26:56;16.50;98.30
39849;DHT22;25518;47.878;15.914;2023-05-10T15:29:46;16.60;97.30
39849;DHT22;25518;47.878;15.914;2023-05-10T15:32:36;16.70;98.10
39849;DHT22;25518;47.878;15.914;2023-05-10T15:35:26;16.70;98.40
39849;DHT22;25518;47.878;15.914;2023-05-10T15:38:16;16.70;98.60
39849;DHT22;25518;47.878;15.914;2023-05-10T15:41:05;16.50;97.40
39849;DHT22;25518;47.878;15.914;2023-05-10T15:43:55;16.50;99.30
39849;DHT22;25518;47.878;15.914;2023-05-10T15:46:45;16.60;98.10
39849;DHT22;25518;47.878;15.914;2023-05-10T15:49:34;16.70;98.50
39849;DHT22;25518;47.878;15.914;2023-05-10T15:52:24;16.60;98.10
39849;DHT22;25518;47.878;15.914;2023-05-10T15:55:14;16.50;99.00
39849;DHT22;25518;47.878;15.914;2023-05-10T15:58:04;16.50;98.90
39849;DHT22;25518;47.878;15.914;2023-05-10T16:00:54;16.20;99.90
39849;DHT22;25518;47.878;15.914;2023-05-10T16:03:43;15.90;99.60
39849;DHT22;25518;47.878;15.914;2023-05-10T16:06:35;15.90;99.90
39849;DHT22;25518;47.878;15.914;2023-05-10T16:09:26;15.90;99.90
39849;DHT22;25518;47.878;15.914;2023-05-10T16:12:15;14.10;99.90
39849;DHT22;25518;47.878;15.914;2023-05-10T16:15:05;15.90;99.90
39849;DHT22;25518;47.878;15.914;2023-05-10T16:17:56;15.90;99.90
39849;DHT22;25518;47.878;15.914;2023-05-10T16:20:47;15.80;99.90
39849;DHT22;25518;47.878;15.914;2023-05-10T16:23:37;15.80;99.90
39849;DHT22;25518;47.878;15.914;2023-05-10T16:26:26;15.60;99.90
39849;DHT22;25518;47.878;15.914;2023-05-10T16:29:16;15.60;99.90
39849;DHT22;25518;47.878;15.914;2023-05-10T16:32:06;14.30;99.90
39849;DHT22;25518;47.878;15.914;2023-05-10T16:34:55;15.40;99.90
39849;DHT22;25518;47.878;15.914;2023-05-10T16:37:45;15.40;99.90
39849;DHT22;25518;47.878;15.914;2023-05-10T16:40:35;15.50;99.90
39849;DHT22;25518;47.878;15.914;2023-05-10T16:43:24;15.50;99.90
39849;DHT22;25518;47.878;15.914;2023-05-10T16:46:14;15.60;99.90
39849;DHT22;25518;47.878;15.914;2023-05-10T16:49:05;15.50;99.90
39849;DHT22;25518;47.878;15.914;2023-05-10T16:51:54;15.40;99.90
39849;DHT22;25518;47.878;15.914;2023-05-10T16:54:44;15.40;99.90
39849;DHT22;25518;47.878;15.914;2023-05-10T16:57:34;15.30;99.90
39849;DHT22;25518;47.878;15.914;2023-05-10T17:00:24;15.30;99.90
39849;DHT22;25518;47.878;15.914;2023-05-10T17:03:14;15.30;99.90
39849;DHT22;25518;47.878;15.914;2023-05-10T17:06:05;15.20;99.90
39849;DHT22;25518;47.878;15.914;2023-05-10T17:08:55;15.10;99.80
39849;DHT22;25518;47.878;15.914;2023-05-10T17:11:45;15.20;99.90
39849;DHT22;25518;47.878;15.914;2023-05-10T17:14:36;15.10;99.90
39849;DHT22;25518;47.878;15.914;2023-05-10T17:17:26;15.10;99.90
39849;DHT22;25518;47.878;15.914;2023-05-10T17:20:16;15.10;99.90
39849;DHT22;25518;47.878;15.914;2023-05-10T17:23:06;15.00;99.90
39849;DHT22;25518;47.878;15.914;2023-05-10T17:25:56;14.90;99.90
39849;DHT22;25518;47.878;15.914;2023-05-10T17:28:45;15.00;99.90
39849;DHT22;25518;47.878;15.914;2023-05-10T17:31:35;14.90;99.90
39849;DHT22;25518;47.878;15.914;2023-05-10T17:34:24;14.80;99.90
39849;DHT22;25518;47.878;15.914;2023-05-10T17:37:14;14.80;99.90
39849;DHT22;25518;47.878;15.914;2023-05-10T17:40:04;13.00;99.90
39849;DHT22;25518;47.878;15.914;2023-05-10T17:42:56;14.60;99.90
39849;DHT22;25518;47.878;15.914;2023-05-10T17:45:47;14.70;99.90
39849;DHT22;25518;47.878;15.914;2023-05-10T17:48:38;14.50;99.90
39849;DHT22;25518;47.878;15.914;2023-05-10T17:51:27;14.50;99.90
39849;DHT22;25518;47.878;15.914;2023-05-10T17:54:17;14.20;99.90
39849;DHT22;25518;47.878;15.914;2023-05-10T17:57:07;14.20;99.90
39849;DHT22;25518;47.878;15.914;2023-05-10T17:59:56;14.10;99.90
39849;DHT22;25518;47.878;15.914;2023-05-10T18:02:46;13.10;99.90
39849;DHT22;25518;47.878;15.914;2023-05-10T18:05:38;13.90;99.90
39849;DHT22;25518;47.878;15.914;2023-05-10T18:08:27;11.80;99.90
39849;DHT22;25518;47.878;15.914;2023-05-10T18:11:18;13.60;99.90
39849;DHT22;25518;47.878;15.914;2023-05-10T18:14:08;13.50;99.90
39849;DHT22;25518;47.878;15.914;2023-05-10T18:16:57;13.50;99.90
39849;DHT22;25518;47.878;15.914;2023-05-10T18:19:47;13.40;99.90
39849;DHT22;25518;47.878;15.914;2023-05-10T18:22:37;13.30;99.90
39849;DHT22;25518;47.878;15.914;2023-05-10T18:25:26;11.90;99.90
39849;DHT22;25518;47.878;15.914;2023-05-10T18:28:16;13.60;99.90
39849;DHT22;25518;47.878;15.914;2023-05-10T18:31:05;13.60;99.90
39849;DHT22;25518;47.878;15.914;2023-05-10T18:33:55;13.50;99.90
39849;DHT22;25518;47.878;15.914;2023-05-10T18:36:45;13.40;99.90
39849;DHT22;25518;47.878;15.914;2023-05-10T18:39:36;13.60;99.90
39849;DHT22;25518;47.878;15.914;2023-05-10T18:42:26;13.60;99.90
39849;DHT22;25518;47.878;15.914;2023-05-10T18:45:16;13.60;99.90
39849;DHT22;25518;47.878;15.914;2023-05-10T18:48:06;11.80;99.90
39849;DHT22;25518;47.878;15.914;2023-05-10T18:50:56;11.80;99.90
39849;DHT22;25518;47.878;15.914;2023-05-10T18:53:45;12.60;99.90
39849;DHT22;25518;47.878;15.914;2023-05-10T18:56:34;13.70;99.90
39849;DHT22;25518;47.878;15.914;2023-05-10T18:59:25;13.60;99.90
39849;DHT22;25518;47.878;15.914;2023-05-10T19:02:16;13.60;99.90
39849;DHT22;25518;47.878;15.914;2023-05-10T19:05:06;13.60;99.90
39849;DHT22;25518;47.878;15.914;2023-05-10T19:07:56;13.60;99.90
39849;DHT22;25518;47.878;15.914;2023-05-10T19:10:46;13.50;99.90
39849;DHT22;25518;47.878;15.914;2023-05-10T19:13:35;13.30;99.90
39849;DHT22;25518;47.878;15.914;2023-05-10T19:16:25;13.40;99.90
39849;DHT22;25518;47.878;15.914;2023-05-10T19:19:16;12.80;99.90
39849;DHT22;25518;47.878;15.914;2023-05-10T19:22:05;13.30;99.90
39849;DHT22;25518;47.878;15.914;2023-05-10T19:24:55;13.10;99.90
39849;DHT22;25518;47.878;15.914;2023-05-10T19:27:44;13.00;99.90
39849;DHT22;25518;47.878;15.914;2023-05-10T19:30:34;12.90;99.90
39849;DHT22;25518;47.878;15.914;2023-05-10T19:33:25;12.80;99.90
39849;DHT22;25518;47.878;15.914;2023-05-10T19:36:14;12.80;99.90
39849;DHT22;25518;47.878;15.914;2023-05-10T19:39:04;12.90;99.90
39849;DHT22;25518;47.878;15.914;2023-05-10T19:41:53;12.80;99.90
39849;DHT22;25518;47.878;15.914;2023-05-10T19:44:43;12.70;99.90
39849;DHT22;25518;47.878;15.914;2023-05-10T19:47:33;12.90;99.90
39849;DHT22;25518;47.878;15.914;2023-05-10T19:50:23;12.60;99.90
39849;DHT22;25518;47.878;15.914;2023-05-10T19:53:13;12.50;99.90
39849;DHT22;25518;47.878;15.914;2023-05-10T19:56:04;12.50;99.90
39849;DHT22;25518;47.878;15.914;2023-05-10T19:58:54;10.80;99.90
39849;DHT22;25518;47.878;15.914;2023-05-10T20:01:44;12.30;99.90
39849;DHT22;25518;47.878;15.914;2023-05-10T20:04:34;12.20;99.90
39849;DHT22;25518;47.878;15.914;2023-05-10T20:07:23;12.30;99.90
39849;DHT22;25518;47.878;15.914;2023-05-10T20:10:14;12.40;99.90
39849;DHT22;25518;47.878;15.914;2023-05-10T20:13:04;12.50;99.90
39849;DHT22;25518;47.878;15.914;2023-05-10T20:15:56;12.30;99.90
39849;DHT22;25518;47.878;15.914;2023-05-10T20:18:46;12.10;99.90
39849;DHT22;25518;47.878;15.914;2023-05-10T20:21:35;12.20;99.90
39849;DHT22;25518;47.878;15.914;2023-05-10T20:24:25;12.10;99.90
39849;DHT22;25518;47.878;15.914;2023-05-10T20:27:15;11.90;99.90
39849;DHT22;25518;47.878;15.914;2023-05-10T20:30:05;12.10;99.90
39849;DHT22;25518;47.878;15.914;2023-05-10T20:32:55;12.10;99.90
39849;DHT22;25518;47.878;15.914;2023-05-10T20:35:44;12.00;99.90
39849;DHT22;25518;47.878;15.914;2023-05-10T20:38:34;11.90;99.90
39849;DHT22;25518;47.878;15.914;2023-05-10T20:41:24;11.90;99.90
39849;DHT22;25518;47.878;15.914;2023-05-10T20:44:14;11.90;99.90
39849;DHT22;25518;47.878;15.914;2023-05-10T20:47:03;11.90;99.90
39849;DHT22;25518;47.878;15.914;2023-05-10T20:49:53;12.00;99.90
39849;DHT22;25518;47.878;15.914;2023-05-10T20:52:42;12.20;99.90
39849;DHT22;25518;47.878;15.914;2023-05-10T20:55:32;12.40;99.90
39849;DHT22;25518;47.878;15.914;2023-05-10T20:58:22;12.30;99.90
39849;DHT22;25518;47.878;15.914;2023-05-10T21:01:11;10.70;99.90
39849;DHT22;25518;47.878;15.914;2023-05-10T21:04:02;12.10;99.90
39849;DHT22;25518;47.878;15.914;2023-05-10T21:06:51;12.20;99.90
39849;DHT22;25518;47.878;15.914;2023-05-10T21:09:41;12.30;99.90
39849;DHT22;25518;47.878;15.914;2023-05-10T21:12:31;12.30;99.90
39849;DHT22;25518;47.878;15.914;2023-05-10T21:15:20;12.10;99.90
39849;DHT22;25518;47.878;15.914;2023-05-10T21:18:12;12.00;99.90
39849;DHT22;25518;47.878;15.914;2023-05-10T21:21:02;12.00;99.90
39849;DHT22;25518;47.878;15.914;2023-05-10T21:23:52;11.90;99.90
39849;DHT22;25518;47.878;15.914;2023-05-10T21:26:41;11.50;99.90
39849;DHT22;25518;47.878;15.914;2023-05-10T21:29:31;11.20;99.90
39849;DHT22;25518;47.878;15.914;2023-05-10T21:32:21;11.10;99.90
39849;DHT22;25518;47.878;15.914;2023-05-10T21:35:11;11.20;99.90
39849;DHT22;25518;47.878;15.914;2023-05-10T21:38:00;11.20;99.90
39849;DHT22;25518;47.878;15.914;2023-05-10T21:40:50;11.10;99.90
39849;DHT22;25518;47.878;15.914;2023-05-10T21:43:40;11.30;99.90
39849;DHT22;25518;47.878;15.914;2023-05-10T21:46:29;11.30;99.90
39849;DHT22;25518;47.878;15.914;2023-05-10T21:49:19;11.40;99.90
39849;DHT22;25518;47.878;15.914;2023-05-10T21:52:09;11.30;99.90
39849;DHT22;25518;47.878;15.914;2023-05-10T21:54:58;11.40;99.90
39849;DHT22;25518;47.878;15.914;2023-05-10T21:57:49;11.20;99.90
39849;DHT22;25518;47.878;15.914;2023-05-10T22:00:38;11.40;99.90
39849;DHT22;25518;47.878;15.914;2023-05-10T22:03:28;11.30;99.90
39849;DHT22;25518;47.878;15.914;2023-05-10T22:06:18;11.30;99.90
39849;DHT22;25518;47.878;15.914;2023-05-10T22:09:07;11.10;99.90
39849;DHT22;25518;47.878;15.914;2023-05-10T22:11:58;11.10;99.90
39849;DHT22;25518;47.878;15.914;2023-05-10T22:14:48;11.00;99.90
39849;DHT22;25518;47.878;15.914;2023-05-10T22:17:38;11.00;99.90
39849;DHT22;25518;47.878;15.914;2023-05-10T22:20:28;11.20;99.90
39849;DHT22;25518;47.878;15.914;2023-05-10T22:23:18;11.00;99.90
39849;DHT22;25518;47.878;15.914;2023-05-10T22:26:07;11.20;99.90
39849;DHT22;25518;47.878;15.914;2023-05-10T22:28:57;11.20;99.90
39849;DHT22;25518;47.878;15.914;2023-05-10T22:31:47;11.20;99.90
39849;DHT22;25518;47.878;15.914;2023-05-10T22:34:37;11.30;99.90
39849;DHT22;25518;47.878;15.914;2023-05-10T22:37:26;11.10;99.90
39849;DHT22;25518;47.878;15.914;2023-05-10T22:40:16;8.50;99.90
39849;DHT22;25518;47.878;15.914;2023-05-10T22:43:06;11.10;99.90
39849;DHT22;25518;47.878;15.914;2023-05-10T22:45:55;11.00;99.90
39849;DHT22;25518;47.878;15.914;2023-05-10T22:48:47;10.80;99.90
39849;DHT22;25518;47.878;15.914;2023-05-10T22:51:37;11.00;99.90
39849;DHT22;25518;47.878;15.914;2023-05-10T22:54:27;10.90;99.90
39849;DHT22;25518;47.878;15.914;2023-05-10T22:57:17;10.70;99.90
39849;DHT22;25518;47.878;15.914;2023-05-10T23:00:07;10.60;99.90
39849;DHT22;25518;47.878;15.914;2023-05-10T23:02:57;10.60;99.90
39849;DHT22;25518;47.878;15.914;2023-05-10T23:05:47;9.60;99.90
39849;DHT22;25518;47.878;15.914;2023-05-10T23:08:36;10.90;99.90
39849;DHT22;25518;47.878;15.914;2023-05-10T23:11:26;10.70;99.90
39849;DHT22;25518;47.878;15.914;2023-05-10T23:14:16;10.70;99.90
39849;DHT22;25518;47.878;15.914;2023-05-10T23:17:07;10.60;99.90
39849;DHT22;25518;47.878;15.914;2023-05-10T23:19:56;10.60;99.90
39849;DHT22;25518;47.878;15.914;2023-05-10T23:22:46;10.70;99.90
39849;DHT22;25518;47.878;15.914;2023-05-10T23:25:36;8.60;99.90
39849;DHT22;25518;47.878;15.914;2023-05-10T23:28:26;10.70;99.90
39849;DHT22;25518;47.878;15.914;2023-05-10T23:31:16;10.80;99.90
39849;DHT22;25518;47.878;15.914;2023-05-10T23:34:05;10.70;99.90
39849;DHT22;25518;47.878;15.914;2023-05-10T23:36:55;10.70;99.90
39849;DHT22;25518;47.878;15.914;2023-05-10T23:39:45;10.80;99.90
39849;DHT22;25518;47.878;15.914;2023-05-10T23:42:34;10.80;99.90
39849;DHT22;25518;47.878;15.914;2023-05-10T23:45:24;10.80;99.90
39849;DHT22;25518;47.878;15.914;2023-05-10T23:48:14;10.90;99.90
39849;DHT22;25518;47.878;15.914;2023-05-10T23:51:04;10.80;99.90
39849;DHT22;25518;47.878;15.914;2023-05-10T23:53:53;10.70;99.90
39849;DHT22;25518;47.878;15.914;2023-05-10T23:56:43;10.50;99.90
39849;DHT22;25518;47.878;15.914;2023-05-10T23:59:33;9.90;99.90
